createdAt,value
2022-12-31T16:14:15.846Z,12.25
2022-12-31T16:16:51.900Z,15.32
2022-12-31T16:19:25.402Z,14.23
2022-12-31T16:21:56.873Z,19.33
2022-12-31T16:24:28.265Z,28.13
2022-12-31T16:26:57.535Z,17.85
2022-12-31T16:29:26.774Z,15.48
2022-12-31T16:31:54.846Z,22.70
2022-12-31T16:34:23.426Z,19.70
2022-12-31T16:36:58.481Z,26.17
2022-12-31T16:39:27.652Z,36.88
2022-12-31T16:42:08.403Z,30.23
2022-12-31T16:44:37.463Z,29.35
2022-12-31T16:47:07.020Z,31.80
2022-12-31T16:49:36.836Z,34.95
2022-12-31T16:52:05.726Z,31.70
2022-12-31T16:54:35.305Z,71.65
2022-12-31T16:57:03.244Z,123.57
2022-12-31T16:59:35.664Z,71.15
2022-12-31T17:02:08.028Z,55.63
2022-12-31T17:04:40.017Z,36.45
2022-12-31T17:07:26.556Z,29.15
2022-12-31T17:10:05.790Z,23.63
2022-12-31T17:13:24.964Z,39.05
2022-12-31T17:15:40.063Z,75.32
2022-12-31T17:18:16.087Z,221.57
2022-12-31T17:20:44.098Z,36.15
2022-12-31T17:23:18.834Z,28.50
2022-12-31T17:25:47.074Z,37.58
2022-12-31T17:28:22.115Z,27.90
2022-12-31T17:30:50.013Z,98.43
2022-12-31T17:33:29.639Z,27.45
2022-12-31T17:35:57.975Z,18.80
2022-12-31T17:38:30.886Z,21.05
2022-12-31T17:41:04.274Z,21.90
2022-12-31T17:43:35.212Z,21.25
2022-12-31T17:46:03.746Z,15.38
2022-12-31T17:48:34.605Z,10.65
2022-12-31T17:51:02.875Z,9.48
2022-12-31T17:53:30.655Z,20.85
2022-12-31T17:56:01.443Z,22.05
2022-12-31T17:58:33.511Z,10.23
2022-12-31T18:01:02.482Z,9.23
2022-12-31T18:03:30.493Z,8.95
2022-12-31T18:05:59.514Z,7.00
2022-12-31T18:08:27.366Z,8.85
2022-12-31T18:10:55.603Z,8.65
2022-12-31T18:13:24.516Z,9.93
2022-12-31T18:15:52.674Z,12.50
2022-12-31T18:18:25.276Z,9.75
2022-12-31T18:20:54.340Z,10.63
2022-12-31T18:23:24.816Z,9.73
2022-12-31T18:25:52.611Z,9.20
2022-12-31T18:28:20.582Z,7.50
2022-12-31T18:30:49.391Z,11.35
2022-12-31T18:33:22.186Z,9.02
2022-12-31T18:36:08.414Z,9.35
2022-12-31T18:38:39.360Z,12.02
2022-12-31T18:41:07.346Z,12.25
2022-12-31T18:43:35.466Z,10.68
2022-12-31T18:46:03.720Z,9.52
2022-12-31T18:48:31.535Z,12.20
2022-12-31T18:50:59.282Z,10.68
2022-12-31T18:53:26.997Z,9.77
2022-12-31T18:55:56.758Z,69.97
2022-12-31T18:58:24.995Z,30.30
2022-12-31T19:00:53.044Z,26.88
2022-12-31T19:03:21.811Z,15.93
2022-12-31T19:05:50.899Z,22.98
2022-12-31T19:08:19.066Z,21.23
2022-12-31T19:10:47.481Z,20.15
2022-12-31T19:13:17.764Z,19.83
2022-12-31T19:15:46.623Z,19.60
2022-12-31T19:18:14.357Z,31.67
2022-12-31T19:20:42.355Z,20.65
2022-12-31T19:23:14.609Z,25.83
2022-12-31T19:25:42.318Z,24.05
2022-12-31T19:28:15.527Z,21.10
2022-12-31T19:30:44.596Z,22.27
2022-12-31T19:33:13.999Z,26.23
2022-12-31T19:35:42.105Z,31.58
2022-12-31T19:38:16.625Z,29.83
2022-12-31T19:40:44.353Z,25.63
2022-12-31T19:43:13.590Z,19.80
2022-12-31T19:45:41.536Z,20.40
2022-12-31T19:48:12.077Z,15.82
2022-12-31T19:50:41.746Z,25.30
2022-12-31T19:53:12.001Z,19.10
2022-12-31T19:55:40.188Z,13.60
2022-12-31T19:58:08.379Z,10.88
2022-12-31T20:00:36.146Z,12.85
2022-12-31T20:03:04.059Z,9.60
2022-12-31T20:05:33.182Z,11.10
2022-12-31T20:08:01.034Z,5.72
2022-12-31T20:10:28.921Z,5.65
2022-12-31T20:12:56.903Z,8.10
2022-12-31T20:15:24.675Z,7.50
2022-12-31T20:17:52.839Z,6.30
2022-12-31T20:20:20.566Z,7.30
2022-12-31T20:22:49.612Z,10.45
2022-12-31T20:25:20.235Z,10.68
2022-12-31T20:27:48.234Z,8.13
2022-12-31T20:30:19.433Z,12.75
2022-12-31T20:32:50.771Z,18.35
2022-12-31T20:35:19.027Z,14.80
2022-12-31T20:37:47.009Z,10.90
2022-12-31T20:40:16.041Z,11.23
2022-12-31T20:42:43.790Z,10.55
2022-12-31T20:45:11.904Z,9.25
2022-12-31T20:47:39.738Z,17.65
2022-12-31T20:50:11.915Z,14.20
2022-12-31T20:52:40.792Z,15.18
2022-12-31T20:55:09.669Z,13.15
2022-12-31T20:57:38.729Z,11.13
2022-12-31T21:00:07.356Z,11.60
2022-12-31T21:02:42.079Z,10.90
2022-12-31T21:05:10.989Z,10.63
2022-12-31T21:07:38.952Z,11.60
2022-12-31T21:10:08.159Z,27.05
2022-12-31T21:12:44.255Z,13.77
2022-12-31T21:15:14.260Z,13.50
2022-12-31T21:17:42.041Z,18.02
2022-12-31T21:20:12.913Z,16.90
2022-12-31T21:22:40.657Z,13.57
2022-12-31T21:25:12.275Z,13.60
2022-12-31T21:27:40.415Z,85.00
2022-12-31T21:30:24.158Z,50.80
2022-12-31T21:32:53.305Z,29.15
2022-12-31T21:38:10.037Z,27.52
2022-12-31T21:40:37.820Z,24.13
2022-12-31T21:43:05.926Z,23.15
2022-12-31T21:45:33.680Z,23.63
2022-12-31T21:48:23.189Z,36.50
2022-12-31T21:50:51.914Z,23.80
2022-12-31T21:53:24.192Z,27.13
2022-12-31T21:56:13.641Z,27.08
2022-12-31T21:58:42.407Z,19.83
2022-12-31T22:01:29.312Z,19.17
2022-12-31T22:03:58.471Z,21.92
2022-12-31T22:06:26.196Z,18.40
2022-12-31T22:08:54.995Z,15.35
2022-12-31T22:11:23.559Z,113.72
2022-12-31T22:13:52.637Z,48.30
2022-12-31T22:16:22.572Z,28.63
2022-12-31T22:18:50.840Z,23.70
2022-12-31T22:21:20.944Z,25.95
2022-12-31T22:23:53.963Z,12.98
2022-12-31T22:26:23.413Z,16.80
2022-12-31T22:28:52.288Z,21.98
2022-12-31T22:31:20.887Z,19.10
2022-12-31T22:33:48.722Z,15.43
2022-12-31T22:36:18.429Z,16.58
2022-12-31T22:38:48.075Z,35.65
2022-12-31T22:41:17.017Z,11.00
2022-12-31T22:43:47.194Z,11.50
2022-12-31T22:46:16.725Z,12.82
2022-12-31T22:48:44.631Z,10.20
2022-12-31T22:51:13.052Z,21.42
2022-12-31T22:53:41.331Z,16.55
2022-12-31T22:56:12.084Z,16.35
2022-12-31T22:58:40.002Z,21.08
2022-12-31T23:01:08.750Z,235.13
2022-12-31T23:03:37.007Z,47.30
2022-12-31T23:06:05.257Z,377.85
2022-12-31T23:08:36.307Z,420.25
2022-12-31T23:11:05.947Z,824.22
2022-12-31T23:13:56.875Z,1004.00
2022-12-31T23:16:45.908Z,517.33
2022-12-31T23:19:31.304Z,314.23
2022-12-31T23:22:17.088Z,585.10
2022-12-31T23:24:45.001Z,247.15
2022-12-31T23:27:13.469Z,187.40
2022-12-31T23:29:47.256Z,233.52
2022-12-31T23:32:16.390Z,233.60
2022-12-31T23:34:44.609Z,235.38
2022-12-31T23:37:12.401Z,157.95
2022-12-31T23:39:40.142Z,157.30
2022-12-31T23:42:07.916Z,122.60
2022-12-31T23:44:35.717Z,105.57
2022-12-31T23:47:04.937Z,106.28
2022-12-31T23:49:32.709Z,83.90
2022-12-31T23:52:00.526Z,102.65
2022-12-31T23:54:29.053Z,74.35
2022-12-31T23:56:56.860Z,92.60
2022-12-31T23:59:24.591Z,75.45
